Time;durP1;ratioP1;P1;durP2;ratioP2;P2;SDS_P1;SDS_P2;PMS_P1;PMS_P2;Temp;Humidity;BMP_temperature;BMP_pressure;BME280_temperature;BME280_humidity;BME280_pressure;Samples;Min_cycle;Max_cycle;Signal;HPM_P1;HPM_P2
2023/01/02 00:01:15;;;;;;;5.68;3.47;;;10.30;99.90;;;;;;5095063;28;20473;-73
2023/01/02 00:03:40;;;;;;;8.25;3.78;;;10.30;99.90;;;;;;5113927;28;20027;-73
2023/01/02 00:06:07;;;;;;;8.60;3.95;;;10.30;99.90;;;;;;5113206;28;20020;-73
2023/01/02 00:08:32;;;;;;;6.63;3.40;;;10.30;99.90;;;;;;5095579;28;20035;-73
2023/01/02 00:10:58;;;;;;;11.85;3.65;;;10.40;99.90;;;;;;5113829;28;20023;-73
2023/01/02 00:13:24;;;;;;;7.20;3.35;;;10.50;99.90;;;;;;5095044;28;20020;-73
2023/01/02 00:15:49;;;;;;;7.20;3.55;;;10.50;99.90;;;;;;5113833;28;20485;-73
2023/01/02 00:18:15;;;;;;;5.80;3.60;;;10.50;99.90;;;;;;5094501;28;20043;-73
2023/01/02 00:20:40;;;;;;;6.63;3.20;;;10.60;99.90;;;;;;5095526;28;20072;-73
2023/01/02 00:23:06;;;;;;;6.80;3.13;;;10.60;99.90;;;;;;5094837;28;20027;-74
2023/01/02 00:25:33;;;;;;;6.43;3.28;;;10.60;99.90;;;;;;5095314;28;20020;-73
2023/01/02 00:27:59;;;;;;;4.97;3.20;;;10.60;99.90;;;;;;5095111;28;20122;-73
2023/01/02 00:30:25;;;;;;;7.07;3.38;;;10.60;99.90;;;;;;5094797;28;20469;-73
2023/01/02 00:32:51;;;;;;;8.10;3.92;;;10.60;99.90;;;;;;5113466;28;20106;-73
2023/01/02 00:35:16;;;;;;;7.45;3.38;;;10.70;99.90;;;;;;5112907;28;20027;-73
2023/01/02 00:37:42;;;;;;;7.15;3.28;;;10.70;99.90;;;;;;5095089;28;20380;-73
2023/01/02 00:40:12;;;;;;;6.82;3.30;;;10.70;99.90;;;;;;5094270;28;20054;-73
2023/01/02 00:42:41;;;;;;;7.43;3.42;;;10.80;99.90;;;;;;5113379;28;20107;-73
2023/01/02 00:45:08;;;;;;;5.13;3.30;;;10.80;99.90;;;;;;5112895;28;20068;-74
2023/01/02 00:47:35;;;;;;;9.30;3.50;;;10.80;99.90;;;;;;5095015;28;20051;-73
2023/01/02 00:50:01;;;;;;;8.15;3.25;;;10.80;99.90;;;;;;5095129;28;20122;-73
2023/01/02 00:52:26;;;;;;;6.05;3.22;;;10.80;99.90;;;;;;5112744;28;20055;-73
2023/01/02 00:54:52;;;;;;;7.97;3.30;;;10.80;99.90;;;;;;5094848;28;20028;-73
2023/01/02 00:57:17;;;;;;;5.85;3.30;;;10.90;99.90;;;;;;5094437;28;20114;-73
2023/01/02 00:59:43;;;;;;;8.30;3.60;;;10.90;99.90;;;;;;5113106;28;20040;-73
2023/01/02 01:02:09;;;;;;;6.32;2.97;;;11.00;99.90;;;;;;5094388;28;20024;-73
2023/01/02 01:04:35;;;;;;;7.10;2.85;;;11.10;99.90;;;;;;5095117;28;20023;-73
2023/01/02 01:07:00;;;;;;;8.25;3.25;;;11.10;99.90;;;;;;5094774;28;20024;-73
2023/01/02 01:09:26;;;;;;;8.48;3.60;;;11.10;99.90;;;;;;5094347;28;20503;-73
2023/01/02 01:11:52;;;;;;;9.38;2.97;;;11.00;99.90;;;;;;5094744;28;20035;-73
2023/01/02 01:14:17;;;;;;;7.80;3.58;;;11.00;99.90;;;;;;5094337;28;20024;-73
2023/01/02 01:16:43;;;;;;;7.22;3.83;;;11.00;99.90;;;;;;5094473;28;20048;-73
2023/01/02 01:19:09;;;;;;;8.10;3.63;;;11.00;99.90;;;;;;5094484;28;20114;-73
2023/01/02 01:21:34;;;;;;;7.22;3.30;;;11.00;99.90;;;;;;5112940;28;20043;-73
2023/01/02 01:24:00;;;;;;;8.48;3.45;;;11.00;99.90;;;;;;5112611;28;20453;-73
2023/01/02 01:26:26;;;;;;;6.50;3.22;;;11.00;99.90;;;;;;5112356;28;20285;-73
2023/01/02 01:28:55;;;;;;;7.10;3.30;;;11.00;99.90;;;;;;5094595;28;20058;-73
2023/01/02 01:31:22;;;;;;;7.43;3.50;;;11.00;99.90;;;;;;5112648;28;20031;-73
2023/01/02 01:33:48;;;;;;;7.32;3.60;;;11.00;99.90;;;;;;5112852;28;20104;-73
2023/01/02 01:36:19;;;;;;;6.75;3.20;;;11.00;99.90;;;;;;5094109;28;20460;-74
2023/01/02 01:38:46;;;;;;;5.95;3.20;;;11.00;99.90;;;;;;5094681;28;20028;-73
2023/01/02 01:41:13;;;;;;;6.57;3.10;;;11.00;99.90;;;;;;5095498;28;20509;-73
2023/01/02 01:43:49;;;;;;;6.80;3.10;;;11.00;99.90;;;;;;5098367;28;20024;-73
2023/01/02 01:46:20;;;;;;;9.48;3.45;;;11.00;99.90;;;;;;5097776;28;20426;-73
2023/01/02 01:48:48;;;;;;;6.40;3.33;;;11.00;99.90;;;;;;5116530;28;20024;-73
2023/01/02 01:51:15;;;;;;;8.45;3.35;;;11.00;99.90;;;;;;5097654;28;20027;-73
2023/01/02 01:53:43;;;;;;;5.50;3.38;;;11.00;99.90;;;;;;5098251;28;20024;-73
2023/01/02 01:56:10;;;;;;;10.75;3.60;;;11.00;99.90;;;;;;5097677;28;20023;-75
2023/01/02 01:58:41;;;;;;;6.22;3.20;;;11.10;99.90;;;;;;5097697;28;20051;-73
2023/01/02 02:01:09;;;;;;;8.82;3.55;;;11.00;99.90;;;;;;5098170;28;20061;-73
2023/01/02 02:03:36;;;;;;;6.00;3.05;;;11.00;99.90;;;;;;5098133;28;20050;-73
2023/01/02 02:06:02;;;;;;;6.63;3.38;;;10.90;99.90;;;;;;5098043;28;20034;-73
2023/01/02 02:08:42;;;;;;;7.55;3.70;;;10.90;99.90;;;;;;5097395;28;20211;-73
2023/01/02 02:11:10;;;;;;;6.78;3.60;;;10.90;99.90;;;;;;5115974;28;20059;-73
2023/01/02 02:13:36;;;;;;;5.63;3.15;;;10.90;99.90;;;;;;5097925;28;20039;-74
2023/01/02 02:16:16;;;;;;;5.70;3.13;;;10.90;99.90;;;;;;5097891;28;20464;-73
2023/01/02 02:19:09;;;;;;;7.75;3.22;;;10.90;99.90;;;;;;5116112;28;20042;-74
2023/01/02 02:21:52;;;;;;;4.97;3.08;;;10.90;99.90;;;;;;5116060;28;20035;-73
2023/01/02 02:24:42;;;;;;;5.88;3.47;;;10.90;99.90;;;;;;5115483;28;20024;-73
2023/01/02 02:27:39;;;;;;;6.90;3.40;;;10.90;99.90;;;;;;5097798;28;20020;-73
2023/01/02 02:30:10;;;;;;;8.60;3.63;;;10.80;99.90;;;;;;5115946;28;20032;-72
2023/01/02 02:33:15;;;;;;;8.60;3.63;;;10.80;99.90;;;;;;5115773;28;20052;-73
2023/01/02 02:35:51;;;;;;;5.50;3.25;;;10.90;99.90;;;;;;5115769;28;20110;-73
2023/01/02 02:38:17;;;;;;;7.53;3.20;;;10.80;99.90;;;;;;5115514;28;20027;-73
2023/01/02 02:40:51;;;;;;;6.18;3.38;;;10.80;99.90;;;;;;5115512;28;20034;-73
2023/01/02 02:43:31;;;;;;;8.75;3.22;;;10.80;99.90;;;;;;5096874;28;20119;-74
2023/01/02 02:46:20;;;;;;;7.53;3.10;;;10.70;99.90;;;;;;5097576;28;20026;-73
2023/01/02 02:48:49;;;;;;;6.13;3.15;;;10.70;99.90;;;;;;5115169;28;20035;-73
2023/01/02 02:51:25;;;;;;;6.60;3.13;;;10.70;99.90;;;;;;5096677;28;20160;-74
2023/01/02 02:53:59;;;;;;;6.90;3.13;;;10.70;99.90;;;;;;5114568;28;20049;-73
2023/01/02 02:56:27;;;;;;;7.22;3.58;;;10.70;99.90;;;;;;5096532;28;20046;-73
2023/01/02 02:58:54;;;;;;;6.25;3.33;;;10.70;99.90;;;;;;5115233;28;20035;-73
2023/01/02 03:01:24;;;;;;;6.50;3.80;;;10.60;99.90;;;;;;5096348;28;20035;-74
2023/01/02 03:03:50;;;;;;;7.38;3.08;;;10.60;99.90;;;;;;5097193;28;20028;-73
2023/01/02 03:06:15;;;;;;;4.80;3.08;;;10.60;99.90;;;;;;5114933;28;20081;-73
2023/01/02 03:08:47;;;;;;;8.85;3.38;;;10.60;99.90;;;;;;5115112;28;20028;-73
2023/01/02 03:11:14;;;;;;;7.03;3.45;;;10.50;99.90;;;;;;5114367;28;20411;-76
2023/01/02 03:13:53;;;;;;;6.40;3.90;;;10.50;99.90;;;;;;5096899;28;20085;-73
2023/01/02 03:16:34;;;;;;;6.13;3.17;;;10.50;99.90;;;;;;5114213;28;20026;-74
2023/01/02 03:19:12;;;;;;;8.60;3.53;;;10.50;99.90;;;;;;5096322;28;20110;-73
2023/01/02 03:22:05;;;;;;;5.63;3.40;;;10.50;99.90;;;;;;5096535;28;20031;-73
2023/01/02 03:24:31;;;;;;;6.97;3.45;;;10.50;99.90;;;;;;5096044;28;20023;-73
2023/01/02 03:27:12;;;;;;;8.50;3.10;;;10.60;99.90;;;;;;5114800;28;20031;-73
2023/01/02 03:29:45;;;;;;;6.15;3.42;;;10.60;99.90;;;;;;5114491;28;20043;-73
2023/01/02 03:32:22;;;;;;;5.75;3.13;;;10.60;99.90;;;;;;5096455;28;20110;-73
2023/01/02 03:34:49;;;;;;;6.10;2.92;;;10.60;99.90;;;;;;5095949;28;20031;-73
2023/01/02 03:37:22;;;;;;;9.20;3.00;;;10.60;99.90;;;;;;5095752;28;20020;-74
2023/01/02 03:39:52;;;;;;;5.85;3.15;;;10.70;99.90;;;;;;5114342;28;20072;-73
2023/01/02 03:42:27;;;;;;;8.40;3.08;;;10.70;99.90;;;;;;5095829;28;20481;-73
2023/01/02 03:45:10;;;;;;;8.98;2.88;;;10.80;99.90;;;;;;5096081;28;20024;-73
2023/01/02 03:47:50;;;;;;;7.65;2.80;;;10.80;99.90;;;;;;5113817;28;20103;-73
2023/01/02 03:50:26;;;;;;;5.45;2.72;;;10.90;99.90;;;;;;5095247;28;20040;-74
2023/01/02 03:52:52;;;;;;;8.52;3.30;;;11.00;99.90;;;;;;5095890;28;20486;-73
2023/01/02 03:55:20;;;;;;;4.28;2.58;;;11.00;99.90;;;;;;5095368;28;20024;-73
2023/01/02 03:58:14;;;;;;;6.72;2.78;;;11.00;99.90;;;;;;5113775;28;20023;-73
2023/01/02 04:00:50;;;;;;;7.93;2.35;;;11.10;99.90;;;;;;5108992;28;20074;-73
2023/01/02 04:03:33;;;;;;;6.32;2.53;;;11.10;99.90;;;;;;5113511;28;20107;-77
2023/01/02 04:06:15;;;;;;;8.93;2.35;;;11.20;99.90;;;;;;5095797;28;20024;-73
2023/01/02 04:08:49;;;;;;;6.30;2.38;;;11.30;99.90;;;;;;5114037;28;20027;-73
2023/01/02 04:11:19;;;;;;;8.43;2.50;;;11.40;99.90;;;;;;5113956;28;20077;-72
2023/01/02 04:13:54;;;;;;;9.30;2.65;;;11.50;99.90;;;;;;5095545;28;20031;-72
2023/01/02 04:16:26;;;;;;;5.15;2.28;;;11.60;99.90;;;;;;5094781;28;20023;-73
2023/01/02 04:19:00;;;;;;;4.28;2.30;;;11.50;99.90;;;;;;5113866;28;20031;-72
2023/01/02 04:21:30;;;;;;;6.13;2.38;;;11.50;99.90;;;;;;5113195;28;20084;-73
2023/01/02 04:24:16;;;;;;;6.15;2.47;;;11.40;99.90;;;;;;5095470;28;20461;-73
2023/01/02 04:26:50;;;;;;;6.05;2.45;;;11.40;99.90;;;;;;5113524;28;20036;-73
2023/01/02 04:29:16;;;;;;;4.95;2.30;;;11.40;99.90;;;;;;5095377;28;20110;-73
2023/01/02 04:31:52;;;;;;;9.00;2.67;;;11.30;99.90;;;;;;5095512;28;20066;-73
2023/01/02 04:34:19;;;;;;;4.70;2.55;;;11.30;99.90;;;;;;5112986;28;20024;-74
2023/01/02 04:36:45;;;;;;;3.83;2.22;;;11.30;99.90;;;;;;5095193;28;20024;-73
2023/01/02 04:39:11;;;;;;;5.57;2.40;;;11.30;99.90;;;;;;5095226;28;20035;-72
2023/01/02 04:41:37;;;;;;;5.72;2.40;;;11.20;99.90;;;;;;5094658;28;20150;-73
2023/01/02 04:44:03;;;;;;;5.97;2.75;;;11.10;99.90;;;;;;5095116;28;20028;-73
2023/01/02 04:46:29;;;;;;;7.53;2.88;;;11.00;99.90;;;;;;5113070;28;20491;-73
2023/01/02 04:48:55;;;;;;;3.95;2.42;;;10.90;99.90;;;;;;5095123;28;20024;-73
2023/01/02 04:51:21;;;;;;;7.43;2.50;;;10.90;99.90;;;;;;5112711;28;20031;-73
2023/01/02 04:53:48;;;;;;;8.70;3.47;;;10.90;99.90;;;;;;5113520;28;20491;-73
2023/01/02 04:56:13;;;;;;;7.53;3.10;;;10.80;99.90;;;;;;5094939;28;20057;-73
2023/01/02 04:58:40;;;;;;;8.27;3.40;;;10.80;99.90;;;;;;5112908;28;20039;-73
2023/01/02 05:01:10;;;;;;;6.43;2.72;;;10.80;99.90;;;;;;5094836;28;20039;-72
2023/01/02 05:03:44;;;;;;;7.40;2.70;;;10.80;99.90;;;;;;5094435;28;20031;-72
2023/01/02 05:06:10;;;;;;;7.43;3.08;;;10.80;99.90;;;;;;5113437;28;20107;-73
2023/01/02 05:08:36;;;;;;;4.57;2.75;;;10.70;99.90;;;;;;5094324;28;20051;-73
2023/01/02 05:11:14;;;;;;;8.50;2.90;;;10.70;99.90;;;;;;5094746;28;20118;-73
2023/01/02 05:13:40;;;;;;;7.57;2.63;;;10.60;99.90;;;;;;5112156;28;20354;-73
2023/01/02 05:16:06;;;;;;;7.53;2.63;;;10.50;99.90;;;;;;5114421;28;20023;-73
2023/01/02 05:18:32;;;;;;;5.90;2.40;;;10.50;99.90;;;;;;5098281;28;20048;-73
2023/01/02 05:21:03;;;;;;;7.50;2.70;;;10.40;99.90;;;;;;5098767;28;20097;-73
2023/01/02 05:23:47;;;;;;;4.35;2.10;;;10.40;99.90;;;;;;5098388;28;20059;-73
2023/01/02 05:26:14;;;;;;;5.07;2.40;;;10.40;99.90;;;;;;5117068;28;20024;-73
2023/01/02 05:28:40;;;;;;;4.72;2.25;;;10.40;99.90;;;;;;5116942;28;20376;-73
2023/01/02 05:31:05;;;;;;;10.07;2.65;;;10.40;99.90;;;;;;5098686;28;20032;-73
2023/01/02 05:33:31;;;;;;;6.45;2.88;;;10.30;99.90;;;;;;5098010;28;20023;-73
2023/01/02 05:35:56;;;;;;;3.38;2.40;;;10.40;99.90;;;;;;5116993;28;20039;-73
2023/01/02 05:38:22;;;;;;;5.93;2.47;;;10.40;99.90;;;;;;5098134;28;20036;-74
2023/01/02 05:40:48;;;;;;;5.60;2.50;;;10.30;99.90;;;;;;5098619;28;20035;-72
2023/01/02 05:43:13;;;;;;;6.70;2.63;;;10.30;99.90;;;;;;5098524;28;20032;-73
2023/01/02 05:45:39;;;;;;;3.92;2.50;;;10.40;99.90;;;;;;5116215;28;20023;-73
2023/01/02 05:48:05;;;;;;;4.95;2.70;;;10.40;99.90;;;;;;5116993;28;20024;-73
2023/01/02 05:50:30;;;;;;;4.45;2.30;;;10.40;99.90;;;;;;5097791;28;20465;-73
2023/01/02 05:52:56;;;;;;;5.38;2.78;;;10.40;99.90;;;;;;5098393;28;20023;-73
2023/01/02 05:55:21;;;;;;;5.15;2.72;;;10.30;99.90;;;;;;5116476;28;20381;-73
2023/01/02 05:57:47;;;;;;;5.85;2.67;;;10.30;99.90;;;;;;5097841;28;20028;-73
2023/01/02 06:00:13;;;;;;;6.20;2.92;;;10.20;99.90;;;;;;5098039;28;20043;-73
2023/01/02 06:02:39;;;;;;;7.63;2.92;;;10.20;99.90;;;;;;5115582;28;20077;-73
2023/01/02 06:05:05;;;;;;;8.73;3.38;;;10.20;99.90;;;;;;5098010;28;20535;-73
2023/01/02 06:07:31;;;;;;;5.95;2.78;;;10.20;99.90;;;;;;5097430;28;20111;-73
2023/01/02 06:09:57;;;;;;;7.43;2.92;;;10.10;99.90;;;;;;5098009;28;20418;-73
2023/01/02 06:12:22;;;;;;;9.65;3.28;;;10.20;99.90;;;;;;5116208;28;20027;-73
2023/01/02 06:14:48;;;;;;;7.15;2.70;;;10.10;99.90;;;;;;5097594;28;20465;-73
2023/01/02 06:17:13;;;;;;;6.47;3.28;;;10.10;99.90;;;;;;5097689;28;20051;-72
2023/01/02 06:19:39;;;;;;;5.53;3.08;;;10.00;99.90;;;;;;5097336;28;20085;-73
2023/01/02 06:22:05;;;;;;;6.53;2.75;;;10.00;99.90;;;;;;5097717;28;20365;-73
2023/01/02 06:24:30;;;;;;;7.50;3.70;;;10.00;99.90;;;;;;5097261;28;20047;-73
2023/01/02 06:26:56;;;;;;;9.57;3.30;;;9.90;99.90;;;;;;5097131;28;20079;-72
2023/01/02 06:29:21;;;;;;;7.03;3.10;;;9.90;99.90;;;;;;5097621;28;20043;-72
2023/01/02 06:31:47;;;;;;;5.45;2.95;;;9.90;99.90;;;;;;5115055;28;20031;-72
2023/01/02 06:34:13;;;;;;;7.40;2.85;;;9.90;99.90;;;;;;5097583;28;20024;-73
2023/01/02 06:36:38;;;;;;;7.68;3.00;;;9.90;99.90;;;;;;5096880;28;20034;-73
2023/01/02 06:39:04;;;;;;;8.25;3.28;;;9.90;99.90;;;;;;5115746;28;20031;-73
2023/01/02 06:41:30;;;;;;;6.10;3.20;;;9.80;99.90;;;;;;5096713;28;20400;-73
2023/01/02 06:43:55;;;;;;;5.97;3.05;;;9.90;99.90;;;;;;5115643;28;20028;-73
2023/01/02 06:46:22;;;;;;;6.03;2.72;;;9.80;99.90;;;;;;5097353;28;20026;-73
2023/01/02 06:48:48;;;;;;;6.88;2.78;;;9.70;99.90;;;;;;5096770;28;20050;-74
2023/01/02 06:51:16;;;;;;;7.80;3.35;;;9.70;99.90;;;;;;5115525;28;20469;-73
2023/01/02 06:53:43;;;;;;;6.05;3.13;;;9.70;99.90;;;;;;5114880;28;20102;-73
2023/01/02 06:56:10;;;;;;;6.45;2.80;;;9.70;99.90;;;;;;5115050;28;20365;-73
2023/01/02 06:58:37;;;;;;;7.57;3.35;;;9.80;99.90;;;;;;5115023;28;20039;-73
2023/01/02 07:01:13;;;;;;;9.13;3.08;;;9.80;99.90;;;;;;5096858;28;20036;-73
2023/01/02 07:03:39;;;;;;;4.50;2.80;;;9.80;99.90;;;;;;5096351;28;20024;-73
2023/01/02 07:06:14;;;;;;;8.73;3.35;;;9.90;99.90;;;;;;5096953;28;20417;-72
2023/01/02 07:08:41;;;;;;;9.25;3.22;;;9.80;99.90;;;;;;5114907;28;20050;-73
2023/01/02 07:11:10;;;;;;;7.47;3.33;;;9.80;99.90;;;;;;5096846;28;20028;-72
2023/01/02 07:13:36;;;;;;;9.98;3.67;;;9.80;99.90;;;;;;5096358;28;20023;-73
2023/01/02 07:16:07;;;;;;;8.25;2.97;;;9.80;99.90;;;;;;5096774;28;20464;-72
2023/01/02 07:18:34;;;;;;;7.15;3.00;;;9.80;99.90;;;;;;5096090;28;20047;-73
2023/01/02 07:21:00;;;;;;;7.80;3.67;;;9.80;99.90;;;;;;5114850;28;20043;-72
2023/01/02 07:23:25;;;;;;;8.18;3.13;;;9.70;99.90;;;;;;5114547;28;20028;-73
2023/01/02 07:25:56;;;;;;;7.65;3.03;;;9.70;99.90;;;;;;5096060;28;20030;-73
2023/01/02 07:28:22;;;;;;;7.72;3.47;;;9.70;99.90;;;;;;5096618;28;20047;-72
2023/01/02 07:30:47;;;;;;;5.10;2.63;;;9.70;99.90;;;;;;5114276;28;20293;-73
2023/01/02 07:33:13;;;;;;;6.75;2.70;;;9.80;99.90;;;;;;5096610;28;20535;-73
2023/01/02 07:35:39;;;;;;;7.50;3.60;;;9.80;99.90;;;;;;5095881;28;20066;-72
2023/01/02 07:38:06;;;;;;;4.78;2.70;;;9.70;99.90;;;;;;5114146;28;20457;-72
2023/01/02 07:40:32;;;;;;;6.57;2.90;;;9.70;99.90;;;;;;5095174;28;20088;-73
2023/01/02 07:42:57;;;;;;;6.47;3.10;;;9.80;99.90;;;;;;5096335;28;20437;-73
2023/01/02 07:45:23;;;;;;;6.38;3.05;;;9.80;99.90;;;;;;5114714;28;20456;-72
2023/01/02 07:47:49;;;;;;;6.20;2.92;;;9.70;99.90;;;;;;5095678;28;20034;-73
2023/01/02 07:50:14;;;;;;;4.35;2.72;;;9.70;99.90;;;;;;5114632;28;20028;-73
2023/01/02 07:52:41;;;;;;;5.63;2.97;;;9.60;99.90;;;;;;5113884;28;20514;-73
2023/01/02 07:55:07;;;;;;;5.45;2.83;;;9.60;99.90;;;;;;5096083;28;20062;-73
2023/01/02 07:57:33;;;;;;;5.13;2.88;;;9.60;99.90;;;;;;5113712;28;20087;-73
2023/01/02 07:59:58;;;;;;;7.93;3.20;;;9.60;99.90;;;;;;5095782;28;20481;-73
2023/01/02 08:02:24;;;;;;;6.13;2.78;;;9.70;99.90;;;;;;5114173;28;20036;-73
2023/01/02 08:04:50;;;;;;;6.38;2.97;;;9.70;99.90;;;;;;5095335;28;20027;-73
2023/01/02 08:07:15;;;;;;;5.70;3.25;;;9.70;99.90;;;;;;5095738;28;20019;-73
2023/01/02 08:09:41;;;;;;;6.28;2.95;;;9.70;99.90;;;;;;5094890;28;20146;-73
2023/01/02 08:12:06;;;;;;;5.72;2.85;;;9.70;99.90;;;;;;5113642;28;20110;-73
2023/01/02 08:14:32;;;;;;;5.65;3.10;;;9.80;99.90;;;;;;5095044;28;20483;-73
2023/01/02 08:16:58;;;;;;;6.88;3.00;;;9.80;99.90;;;;;;5095604;28;20047;-72
2023/01/02 08:19:24;;;;;;;3.65;2.50;;;9.80;99.90;;;;;;5095622;28;20031;-73
2023/01/02 08:21:49;;;;;;;6.03;3.47;;;9.70;99.90;;;;;;5094644;28;20031;-73
2023/01/02 08:24:15;;;;;;;4.72;2.72;;;9.80;99.90;;;;;;5095466;28;20015;-73
2023/01/02 08:26:40;;;;;;;11.52;4.10;;;9.80;99.90;;;;;;5112895;28;20032;-73
2023/01/02 08:29:08;;;;;;;5.35;2.95;;;9.90;99.90;;;;;;5113687;28;20035;-73
2023/01/02 08:31:34;;;;;;;6.88;3.53;;;10.00;99.90;;;;;;5113171;28;20019;-73
2023/01/02 08:33:59;;;;;;;7.85;3.83;;;10.00;99.90;;;;;;5095302;28;20030;-73
2023/01/02 08:36:25;;;;;;;7.13;3.15;;;10.00;99.90;;;;;;5095380;28;20114;-72
2023/01/02 08:38:50;;;;;;;8.43;3.35;;;10.10;99.90;;;;;;5112782;28;20023;-73
2023/01/02 08:41:33;;;;;;;7.38;3.10;;;10.10;99.90;;;;;;5113341;28;20465;-73
2023/01/02 08:43:59;;;;;;;8.52;4.07;;;10.20;99.90;;;;;;5113404;28;20050;-73
2023/01/02 08:46:25;;;;;;;6.68;3.38;;;10.30;99.90;;;;;;5095077;28;20465;-73
2023/01/02 08:48:51;;;;;;;9.10;3.08;;;10.30;99.90;;;;;;5094555;28;20034;-73
2023/01/02 08:51:16;;;;;;;8.90;3.60;;;10.40;99.90;;;;;;5094089;28;20027;-73
2023/01/02 08:53:42;;;;;;;9.82;3.58;;;10.40;99.90;;;;;;5094774;28;20031;-73
2023/01/02 08:56:21;;;;;;;8.35;3.72;;;10.50;99.90;;;;;;5113539;28;20457;-73
2023/01/02 08:59:01;;;;;;;7.22;3.22;;;10.50;99.90;;;;;;5094469;28;20086;-73
2023/01/02 09:01:29;;;;;;;7.57;2.78;;;10.50;99.90;;;;;;5094989;28;20036;-73
2023/01/02 09:03:55;;;;;;;7.13;3.97;;;10.50;99.90;;;;;;5094223;28;20034;-73
2023/01/02 09:06:22;;;;;;;8.93;3.50;;;10.60;99.90;;;;;;5094887;28;20072;-72
2023/01/02 09:08:51;;;;;;;5.97;3.15;;;10.60;99.90;;;;;;5094427;28;20027;-73
2023/01/02 09:11:20;;;;;;;7.13;3.25;;;10.70;99.90;;;;;;5112820;28;20024;-72
2023/01/02 09:13:45;;;;;;;7.15;3.05;;;10.70;99.90;;;;;;5094325;28;20024;-73
2023/01/02 09:16:11;;;;;;;6.47;2.92;;;10.70;99.90;;;;;;5094949;28;20034;-72
2023/01/02 09:18:38;;;;;;;10.57;2.90;;;10.80;99.90;;;;;;5093700;28;20043;-73
2023/01/02 09:21:05;;;;;;;5.43;2.67;;;10.80;99.90;;;;;;5094696;28;20047;-73
2023/01/02 09:23:31;;;;;;;5.88;2.90;;;10.80;99.90;;;;;;5112665;28;20028;-73
2023/01/02 09:26:03;;;;;;;8.68;3.33;;;10.90;99.90;;;;;;5094211;28;20081;-72
2023/01/02 09:28:30;;;;;;;9.73;3.20;;;10.90;99.90;;;;;;5094651;28;20035;-73
2023/01/02 09:30:56;;;;;;;8.68;3.38;;;10.90;99.90;;;;;;5094190;28;20074;-72
2023/01/02 09:33:22;;;;;;;9.23;3.30;;;10.90;99.90;;;;;;5094703;28;20105;-72
2023/01/02 09:35:47;;;;;;;5.05;2.45;;;11.00;99.90;;;;;;5094267;28;20465;-72
2023/01/02 09:38:13;;;;;;;3.33;1.60;;;11.00;99.90;;;;;;5112873;28;20054;-73
2023/01/02 09:40:50;;;;;;;7.53;1.38;;;11.20;99.90;;;;;;5112265;28;20115;-73
2023/01/02 09:43:23;;;;;;;4.28;1.15;;;11.50;99.90;;;;;;5094755;28;20031;-72
2023/01/02 09:45:49;;;;;;;5.45;1.48;;;12.00;99.90;;;;;;5112345;28;20015;-73
2023/01/02 09:48:17;;;;;;;4.93;1.10;;;12.20;99.90;;;;;;5112771;28;20529;-73
2023/01/02 09:50:46;;;;;;;8.32;1.45;;;12.50;99.90;;;;;;5094010;28;20061;-73
2023/01/02 09:53:13;;;;;;;4.18;1.52;;;12.70;99.90;;;;;;5112706;28;20076;-73
2023/01/02 09:55:54;;;;;;;4.63;1.20;;;12.80;99.90;;;;;;5112229;28;20081;-73
2023/01/02 09:58:57;;;;;;;4.95;1.45;;;12.80;99.90;;;;;;5112335;28;20020;-73
2023/01/02 10:01:34;;;;;;;4.18;2.00;;;13.00;99.90;;;;;;5112700;28;20081;-73
2023/01/02 10:04:12;;;;;;;3.90;1.15;;;13.10;99.90;;;;;;5097580;28;20027;-72
2023/01/02 10:06:46;;;;;;;5.80;1.30;;;13.10;99.90;;;;;;5115629;28;20031;-74
2023/01/02 10:09:35;;;;;;;3.97;1.40;;;13.20;99.90;;;;;;5098026;28;20073;-73
2023/01/02 10:12:10;;;;;;;3.10;1.42;;;13.30;99.90;;;;;;5115897;28;20473;-73
2023/01/02 10:14:57;;;;;;;3.97;1.13;;;13.30;99.90;;;;;;5116350;28;20023;-73
2023/01/02 10:17:28;;;;;;;5.35;1.20;;;13.50;99.90;;;;;;5097563;28;20100;-73
2023/01/02 10:20:16;;;;;;;6.22;1.38;;;13.60;99.90;;;;;;5097264;28;20077;-73
2023/01/02 10:22:49;;;;;;;5.47;1.25;;;13.70;99.90;;;;;;5097310;28;20050;-73
2023/01/02 10:25:28;;;;;;;6.25;1.55;;;13.70;99.60;;;;;;5097828;28;20020;-73
2023/01/02 10:28:25;;;;;;;4.65;1.17;;;13.70;99.50;;;;;;5115140;28;20020;-73
2023/01/02 10:31:02;;;;;;;5.10;1.33;;;13.80;99.30;;;;;;5097209;28;20457;-73
2023/01/02 10:33:45;;;;;;;3.75;1.25;;;13.90;98.90;;;;;;5097223;28;20028;-73
2023/01/02 10:36:21;;;;;;;4.78;1.05;;;13.90;99.10;;;;;;5097701;28;20027;-73
2023/01/02 10:38:47;;;;;;;6.10;1.50;;;13.80;99.50;;;;;;5097003;28;20167;-73
2023/01/02 10:41:13;;;;;;;4.80;1.52;;;13.80;99.70;;;;;;5097285;28;20122;-73
2023/01/02 10:43:39;;;;;;;5.72;1.15;;;13.90;99.60;;;;;;5097382;28;20027;-73
2023/01/02 10:46:04;;;;;;;8.60;1.50;;;13.90;99.80;;;;;;5097230;28;20035;-73
2023/01/02 10:48:33;;;;;;;6.32;1.38;;;13.90;99.30;;;;;;5115484;28;20026;-73
2023/01/02 10:51:06;;;;;;;7.20;1.23;;;14.00;99.00;;;;;;5115315;28;20353;-74
2023/01/02 10:53:35;;;;;;;6.57;1.27;;;14.00;99.00;;;;;;5097471;28;20050;-73
2023/01/02 10:56:04;;;;;;;3.78;1.60;;;14.10;99.50;;;;;;5096647;28;20080;-73
2023/01/02 10:58:32;;;;;;;6.10;1.45;;;14.10;99.60;;;;;;5096993;28;20080;-73
2023/01/02 11:01:18;;;;;;;3.92;1.35;;;14.10;99.70;;;;;;5096410;28;20122;-73
2023/01/02 11:03:56;;;;;;;2.30;1.20;;;14.20;99.10;;;;;;5096592;28;20024;-73
2023/01/02 11:06:30;;;;;;;6.15;1.42;;;14.20;99.50;;;;;;5097079;28;20031;-73
2023/01/02 11:09:01;;;;;;;6.90;1.35;;;14.30;99.50;;;;;;5096392;28;20027;-74
2023/01/02 11:11:29;;;;;;;8.00;1.30;;;14.40;98.70;;;;;;5115451;28;20028;-73
2023/01/02 11:14:04;;;;;;;5.18;1.40;;;14.40;98.90;;;;;;5113528;28;20056;-73
2023/01/02 11:16:30;;;;;;;4.68;1.95;;;14.50;99.30;;;;;;5096551;28;20114;-73
2023/01/02 11:18:58;;;;;;;8.23;1.42;;;14.60;99.40;;;;;;5096304;28;20034;-73
2023/01/02 11:21:37;;;;;;;6.03;1.45;;;14.60;99.60;;;;;;5096580;28;20370;-73
2023/01/02 11:24:18;;;;;;;6.55;1.67;;;14.70;99.80;;;;;;5096131;28;20027;-73
2023/01/02 11:26:47;;;;;;;5.57;1.10;;;14.80;99.10;;;;;;5096077;28;20122;-73
2023/01/02 11:29:25;;;;;;;6.30;1.55;;;14.80;99.20;;;;;;5096519;28;20118;-73
2023/01/02 11:31:55;;;;;;;5.68;1.77;;;14.80;99.30;;;;;;5096103;28;20115;-74
2023/01/02 11:34:29;;;;;;;4.82;1.45;;;14.80;99.30;;;;;;5114799;28;20065;-73
2023/01/02 11:37:15;;;;;;;7.13;1.60;;;14.80;99.70;;;;;;5095882;28;20039;-73
2023/01/02 11:39:42;;;;;;;4.85;1.60;;;14.80;99.90;;;;;;5096346;28;20072;-73
2023/01/02 11:44:55;;;;;;;4.22;1.30;;;14.90;99.90;;;;;;5113796;28;20038;-73
2023/01/02 11:47:48;;;;;;;5.53;1.50;;;15.00;99.90;;;;;;5096196;28;20023;-73
2023/01/02 11:50:38;;;;;;;5.15;1.65;;;15.20;99.90;;;;;;5085671;28;20050;-73
2023/01/02 11:53:28;;;;;;;7.50;1.90;;;15.30;99.90;;;;;;5082733;28;20798;-73
2023/01/02 11:56:03;;;;;;;3.92;1.50;;;15.50;99.90;;;;;;5083370;28;20035;-73
2023/01/02 11:58:58;;;;;;;8.25;1.70;;;15.50;99.90;;;;;;5095596;28;20028;-73
2023/01/02 12:01:45;;;;;;;7.60;1.70;;;15.60;99.90;;;;;;5095526;28;20040;-73
2023/01/02 12:04:12;;;;;;;9.63;1.65;;;15.70;99.90;;;;;;5114120;28;20025;-73
2023/01/02 12:06:59;;;;;;;7.93;1.95;;;15.70;99.90;;;;;;5114069;28;20023;-73
2023/01/02 12:09:33;;;;;;;8.90;1.60;;;15.70;99.90;;;;;;5113723;28;20027;-73
2023/01/02 12:12:17;;;;;;;5.80;1.77;;;15.60;99.90;;;;;;5095176;28;20031;-73
2023/01/02 12:15:01;;;;;;;5.70;1.58;;;15.50;99.90;;;;;;5095721;28;20101;-73
2023/01/02 12:17:35;;;;;;;9.15;1.88;;;15.50;99.90;;;;;;5091686;28;20090;-73
2023/01/02 12:20:01;;;;;;;8.55;1.40;;;15.40;99.90;;;;;;5091648;28;20469;-73
2023/01/02 12:23:05;;;;;;;6.07;2.20;;;15.40;99.90;;;;;;5092149;28;20030;-73
2023/01/02 12:25:40;;;;;;;7.97;1.63;;;15.40;99.90;;;;;;5092329;28;20089;-73
2023/01/02 12:28:05;;;;;;;13.85;1.80;;;15.30;99.90;;;;;;5093017;28;20468;-73
2023/01/02 12:30:37;;;;;;;7.13;1.50;;;15.40;99.90;;;;;;5092097;28;20059;-73
2023/01/02 12:33:22;;;;;;;9.40;1.48;;;15.30;99.90;;;;;;5092795;28;20020;-72
2023/01/02 12:36:12;;;;;;;7.88;1.40;;;15.30;99.90;;;;;;5091506;28;20028;-74
2023/01/02 12:39:07;;;;;;;5.97;1.30;;;15.30;99.90;;;;;;5093178;28;20024;-73
2023/01/02 12:42:11;;;;;;;5.65;1.83;;;15.30;99.90;;;;;;5093158;28;20514;-73
2023/01/02 12:44:52;;;;;;;6.75;1.38;;;15.30;99.90;;;;;;5093108;28;20024;-73
2023/01/02 12:47:35;;;;;;;8.43;1.70;;;15.20;99.90;;;;;;5092092;28;20031;-72
2023/01/02 12:50:42;;;;;;;6.63;2.22;;;15.20;99.90;;;;;;5091348;28;20032;-73
2023/01/02 12:53:29;;;;;;;8.63;2.45;;;15.20;99.90;;;;;;5092212;28;20028;-74
2023/01/02 12:56:13;;;;;;;6.70;1.88;;;15.20;99.90;;;;;;5092399;28;20358;-74
2023/01/02 12:58:50;;;;;;;8.68;1.90;;;15.10;99.90;;;;;;5091644;28;20488;-73
2023/01/02 13:01:40;;;;;;;6.15;1.60;;;15.10;99.90;;;;;;5091790;28;20059;-73
2023/01/02 13:04:27;;;;;;;7.07;2.10;;;15.00;99.90;;;;;;5091140;28;20071;-73
2023/01/02 13:06:58;;;;;;;8.00;2.20;;;14.90;99.90;;;;;;5092349;28;20032;-74
2023/01/02 13:09:39;;;;;;;6.00;1.42;;;14.90;99.90;;;;;;5092551;28;20032;-73
2023/01/02 13:12:15;;;;;;;6.35;1.58;;;14.80;99.90;;;;;;5090939;28;20069;-73